sensor_id;sensor_type;location;lat;lon;timestamp;P1;durP1;ratioP1;P2;durP2;ratioP2
1174;SDS011;576;48.418;10.074;2023-12-20T00:00:14;2.30;;;2.10;;
1174;SDS011;576;48.418;10.074;2023-12-20T00:02:42;2.07;;;1.97;;
1174;SDS011;576;48.418;10.074;2023-12-20T00:05:13;2.17;;;2.07;;
1174;SDS011;576;48.418;10.074;2023-12-20T00:07:41;2.10;;;2.00;;
1174;SDS011;576;48.418;10.074;2023-12-20T00:10:10;2.03;;;1.93;;
1174;SDS011;576;48.418;10.074;2023-12-20T00:12:41;2.30;;;2.10;;
1174;SDS011;576;48.418;10.074;2023-12-20T00:15:09;2.13;;;2.03;;
1174;SDS011;576;48.418;10.074;2023-12-20T00:17:38;3.47;;;2.37;;
1174;SDS011;576;48.418;10.074;2023-12-20T00:20:07;2.70;;;2.50;;
1174;SDS011;576;48.418;10.074;2023-12-20T00:22:36;2.23;;;2.03;;
1174;SDS011;576;48.418;10.074;2023-12-20T00:25:05;1.97;;;1.87;;
1174;SDS011;576;48.418;10.074;2023-12-20T00:27:33;2.30;;;2.10;;
1174;SDS011;576;48.418;10.074;2023-12-20T00:30:03;1.97;;;1.87;;
1174;SDS011;576;48.418;10.074;2023-12-20T00:32:32;2.50;;;2.30;;
1174;SDS011;576;48.418;10.074;2023-12-20T00:35:00;1.80;;;1.70;;
1174;SDS011;576;48.418;10.074;2023-12-20T00:37:29;2.00;;;1.90;;
1174;SDS011;576;48.418;10.074;2023-12-20T00:39:57;2.40;;;2.30;;
1174;SDS011;576;48.418;10.074;2023-12-20T00:42:26;2.13;;;1.90;;
1174;SDS011;576;48.418;10.074;2023-12-20T00:44:54;2.27;;;2.07;;
1174;SDS011;576;48.418;10.074;2023-12-20T00:47:23;1.77;;;1.67;;
1174;SDS011;576;48.418;10.074;2023-12-20T00:49:52;1.90;;;1.80;;
1174;SDS011;576;48.418;10.074;2023-12-20T00:52:20;1.80;;;1.70;;
1174;SDS011;576;48.418;10.074;2023-12-20T00:54:49;1.70;;;1.60;;
1174;SDS011;576;48.418;10.074;2023-12-20T00:57:17;2.07;;;1.87;;
1174;SDS011;576;48.418;10.074;2023-12-20T00:59:45;1.67;;;1.57;;
1174;SDS011;576;48.418;10.074;2023-12-20T01:02:14;2.43;;;2.23;;
1174;SDS011;576;48.418;10.074;2023-12-20T01:04:43;2.50;;;2.10;;
1174;SDS011;576;48.418;10.074;2023-12-20T01:07:11;2.17;;;2.07;;
1174;SDS011;576;48.418;10.074;2023-12-20T01:09:40;2.30;;;2.10;;
1174;SDS011;576;48.418;10.074;2023-12-20T01:12:08;1.83;;;1.73;;
1174;SDS011;576;48.418;10.074;2023-12-20T01:14:36;2.30;;;2.10;;
1174;SDS011;576;48.418;10.074;2023-12-20T01:17:06;1.80;;;1.70;;
1174;SDS011;576;48.418;10.074;2023-12-20T01:19:34;1.50;;;1.40;;
1174;SDS011;576;48.418;10.074;2023-12-20T01:22:04;2.50;;;2.20;;
1174;SDS011;576;48.418;10.074;2023-12-20T01:24:33;2.30;;;2.10;;
1174;SDS011;576;48.418;10.074;2023-12-20T01:27:01;2.20;;;2.10;;
1174;SDS011;576;48.418;10.074;2023-12-20T01:29:30;2.33;;;2.20;;
1174;SDS011;576;48.418;10.074;2023-12-20T01:31:58;2.00;;;1.90;;
1174;SDS011;576;48.418;10.074;2023-12-20T01:34:26;1.90;;;1.80;;
1174;SDS011;576;48.418;10.074;2023-12-20T01:36:54;1.67;;;1.57;;
1174;SDS011;576;48.418;10.074;2023-12-20T01:39:24;1.73;;;1.63;;
1174;SDS011;576;48.418;10.074;2023-12-20T01:41:55;2.17;;;2.03;;
1174;SDS011;576;48.418;10.074;2023-12-20T01:44:23;2.30;;;2.10;;
1174;SDS011;576;48.418;10.074;2023-12-20T01:46:52;1.90;;;1.80;;
1174;SDS011;576;48.418;10.074;2023-12-20T01:49:20;1.50;;;1.37;;
1174;SDS011;576;48.418;10.074;2023-12-20T01:51:49;1.60;;;1.50;;
1174;SDS011;576;48.418;10.074;2023-12-20T01:54:18;2.40;;;1.93;;
1174;SDS011;576;48.418;10.074;2023-12-20T01:56:50;1.70;;;1.60;;
1174;SDS011;576;48.418;10.074;2023-12-20T01:59:18;1.50;;;1.40;;
1174;SDS011;576;48.418;10.074;2023-12-20T02:01:48;1.40;;;1.40;;
1174;SDS011;576;48.418;10.074;2023-12-20T02:04:17;2.30;;;2.10;;
1174;SDS011;576;48.418;10.074;2023-12-20T02:06:46;1.70;;;1.60;;
1174;SDS011;576;48.418;10.074;2023-12-20T02:09:14;1.63;;;1.53;;
1174;SDS011;576;48.418;10.074;2023-12-20T02:11:43;1.47;;;1.37;;
1174;SDS011;576;48.418;10.074;2023-12-20T02:14:12;1.90;;;1.80;;
1174;SDS011;576;48.418;10.074;2023-12-20T02:16:41;1.90;;;1.80;;
1174;SDS011;576;48.418;10.074;2023-12-20T02:19:10;1.77;;;1.67;;
1174;SDS011;576;48.418;10.074;2023-12-20T02:21:43;1.97;;;1.50;;
1174;SDS011;576;48.418;10.074;2023-12-20T02:24:12;1.80;;;1.70;;
1174;SDS011;576;48.418;10.074;2023-12-20T02:26:40;1.80;;;1.70;;
1174;SDS011;576;48.418;10.074;2023-12-20T02:29:12;1.50;;;1.40;;
1174;SDS011;576;48.418;10.074;2023-12-20T02:31:40;1.70;;;1.60;;
1174;SDS011;576;48.418;10.074;2023-12-20T02:34:09;1.40;;;1.40;;
1174;SDS011;576;48.418;10.074;2023-12-20T02:36:37;1.50;;;1.40;;
1174;SDS011;576;48.418;10.074;2023-12-20T02:39:07;1.80;;;1.70;;
1174;SDS011;576;48.418;10.074;2023-12-20T02:41:35;1.90;;;1.80;;
1174;SDS011;576;48.418;10.074;2023-12-20T02:44:04;2.10;;;1.50;;
1174;SDS011;576;48.418;10.074;2023-12-20T02:46:32;1.60;;;1.50;;
1174;SDS011;576;48.418;10.074;2023-12-20T02:49:00;1.30;;;1.23;;
1174;SDS011;576;48.418;10.074;2023-12-20T02:51:29;1.60;;;1.50;;
1174;SDS011;576;48.418;10.074;2023-12-20T02:53:57;1.63;;;1.53;;
1174;SDS011;576;48.418;10.074;2023-12-20T02:56:27;1.97;;;1.87;;
1174;SDS011;576;48.418;10.074;2023-12-20T02:58:55;1.50;;;1.40;;
1174;SDS011;576;48.418;10.074;2023-12-20T03:01:23;1.80;;;1.70;;
1174;SDS011;576;48.418;10.074;2023-12-20T03:03:52;1.10;;;1.10;;
1174;SDS011;576;48.418;10.074;2023-12-20T03:06:20;1.67;;;1.57;;
1174;SDS011;576;48.418;10.074;2023-12-20T03:08:49;2.07;;;1.90;;
1174;SDS011;576;48.418;10.074;2023-12-20T03:11:17;1.40;;;1.30;;
1174;SDS011;576;48.418;10.074;2023-12-20T03:13:46;2.00;;;1.90;;
1174;SDS011;576;48.418;10.074;2023-12-20T03:16:15;1.70;;;1.60;;
1174;SDS011;576;48.418;10.074;2023-12-20T03:18:43;1.83;;;1.73;;
1174;SDS011;576;48.418;10.074;2023-12-20T03:21:11;1.57;;;1.47;;
1174;SDS011;576;48.418;10.074;2023-12-20T03:23:40;1.63;;;1.53;;
1174;SDS011;576;48.418;10.074;2023-12-20T03:26:08;1.53;;;1.33;;
1174;SDS011;576;48.418;10.074;2023-12-20T03:28:36;1.40;;;1.30;;
1174;SDS011;576;48.418;10.074;2023-12-20T03:31:06;1.50;;;1.40;;
1174;SDS011;576;48.418;10.074;2023-12-20T03:33:35;1.50;;;1.27;;
1174;SDS011;576;48.418;10.074;2023-12-20T03:36:03;1.70;;;1.60;;
1174;SDS011;576;48.418;10.074;2023-12-20T03:38:31;1.50;;;1.40;;
1174;SDS011;576;48.418;10.074;2023-12-20T03:41:00;1.60;;;1.50;;
1174;SDS011;576;48.418;10.074;2023-12-20T03:43:28;1.77;;;1.67;;
1174;SDS011;576;48.418;10.074;2023-12-20T03:45:56;1.53;;;1.43;;
1174;SDS011;576;48.418;10.074;2023-12-20T03:48:26;1.17;;;1.10;;
1174;SDS011;576;48.418;10.074;2023-12-20T03:50:55;1.70;;;1.60;;
1174;SDS011;576;48.418;10.074;2023-12-20T03:53:24;1.50;;;1.40;;
1174;SDS011;576;48.418;10.074;2023-12-20T03:55:52;1.70;;;1.60;;
1174;SDS011;576;48.418;10.074;2023-12-20T03:58:20;1.50;;;1.40;;
1174;SDS011;576;48.418;10.074;2023-12-20T04:00:48;1.50;;;1.40;;
1174;SDS011;576;48.418;10.074;2023-12-20T04:03:17;1.53;;;1.43;;
1174;SDS011;576;48.418;10.074;2023-12-20T04:05:46;1.13;;;1.13;;
1174;SDS011;576;48.418;10.074;2023-12-20T04:08:15;1.10;;;1.10;;
1174;SDS011;576;48.418;10.074;2023-12-20T04:10:43;1.40;;;1.30;;
1174;SDS011;576;48.418;10.074;2023-12-20T04:13:11;1.87;;;1.77;;
1174;SDS011;576;48.418;10.074;2023-12-20T04:15:39;1.57;;;1.30;;
1174;SDS011;576;48.418;10.074;2023-12-20T04:18:08;1.83;;;1.73;;
1174;SDS011;576;48.418;10.074;2023-12-20T04:20:36;1.37;;;1.27;;
1174;SDS011;576;48.418;10.074;2023-12-20T04:23:06;1.20;;;1.20;;
1174;SDS011;576;48.418;10.074;2023-12-20T04:25:34;1.20;;;1.20;;
1174;SDS011;576;48.418;10.074;2023-12-20T04:28:03;0.90;;;0.90;;
1174;SDS011;576;48.418;10.074;2023-12-20T04:30:31;1.50;;;1.40;;
1174;SDS011;576;48.418;10.074;2023-12-20T04:32:59;1.30;;;1.20;;
1174;SDS011;576;48.418;10.074;2023-12-20T04:35:28;1.40;;;1.30;;
1174;SDS011;576;48.418;10.074;2023-12-20T04:37:57;1.53;;;1.43;;
1174;SDS011;576;48.418;10.074;2023-12-20T04:40:26;0.90;;;0.90;;
1174;SDS011;576;48.418;10.074;2023-12-20T04:42:54;1.50;;;1.40;;
1174;SDS011;576;48.418;10.074;2023-12-20T04:45:23;1.40;;;1.30;;
1174;SDS011;576;48.418;10.074;2023-12-20T04:47:51;1.13;;;1.03;;
1174;SDS011;576;48.418;10.074;2023-12-20T04:50:20;1.33;;;1.23;;
1174;SDS011;576;48.418;10.074;2023-12-20T04:52:49;1.90;;;1.80;;
1174;SDS011;576;48.418;10.074;2023-12-20T04:55:17;1.40;;;1.30;;
1174;SDS011;576;48.418;10.074;2023-12-20T04:57:47;3.70;;;1.40;;
1174;SDS011;576;48.418;10.074;2023-12-20T05:00:15;1.30;;;1.23;;
1174;SDS011;576;48.418;10.074;2023-12-20T05:02:44;1.47;;;1.37;;
1174;SDS011;576;48.418;10.074;2023-12-20T05:05:12;1.50;;;1.20;;
1174;SDS011;576;48.418;10.074;2023-12-20T05:07:41;1.33;;;1.23;;
1174;SDS011;576;48.418;10.074;2023-12-20T05:10:10;1.33;;;1.23;;
1174;SDS011;576;48.418;10.074;2023-12-20T05:12:38;1.20;;;1.20;;
1174;SDS011;576;48.418;10.074;2023-12-20T05:15:08;1.10;;;1.10;;
1174;SDS011;576;48.418;10.074;2023-12-20T05:17:37;1.30;;;1.20;;
1174;SDS011;576;48.418;10.074;2023-12-20T05:20:06;1.17;;;1.17;;
1174;SDS011;576;48.418;10.074;2023-12-20T05:22:35;1.30;;;1.20;;
1174;SDS011;576;48.418;10.074;2023-12-20T05:25:04;1.30;;;1.20;;
1174;SDS011;576;48.418;10.074;2023-12-20T05:27:33;1.77;;;1.67;;
1174;SDS011;576;48.418;10.074;2023-12-20T05:30:07;1.23;;;1.13;;
1174;SDS011;576;48.418;10.074;2023-12-20T05:32:37;1.33;;;1.17;;
1174;SDS011;576;48.418;10.074;2023-12-20T05:35:05;1.23;;;1.13;;
1174;SDS011;576;48.418;10.074;2023-12-20T05:37:34;1.20;;;1.00;;
1174;SDS011;576;48.418;10.074;2023-12-20T05:40:02;1.70;;;1.60;;
1174;SDS011;576;48.418;10.074;2023-12-20T05:42:31;1.40;;;1.30;;
1174;SDS011;576;48.418;10.074;2023-12-20T05:45:00;1.40;;;1.10;;
1174;SDS011;576;48.418;10.074;2023-12-20T05:47:30;0.80;;;0.80;;
1174;SDS011;576;48.418;10.074;2023-12-20T05:49:58;1.10;;;1.10;;
1174;SDS011;576;48.418;10.074;2023-12-20T05:52:26;1.30;;;1.27;;
1174;SDS011;576;48.418;10.074;2023-12-20T05:54:54;1.17;;;1.17;;
1174;SDS011;576;48.418;10.074;2023-12-20T05:57:24;1.10;;;1.07;;
1174;SDS011;576;48.418;10.074;2023-12-20T05:59:52;1.20;;;1.10;;
1174;SDS011;576;48.418;10.074;2023-12-20T06:02:20;1.27;;;1.20;;
1174;SDS011;576;48.418;10.074;2023-12-20T06:04:50;1.37;;;1.27;;
1174;SDS011;576;48.418;10.074;2023-12-20T06:07:18;1.10;;;1.10;;
1174;SDS011;576;48.418;10.074;2023-12-20T06:09:47;1.00;;;1.00;;
1174;SDS011;576;48.418;10.074;2023-12-20T06:12:15;1.60;;;1.50;;
1174;SDS011;576;48.418;10.074;2023-12-20T06:14:44;1.00;;;1.00;;
1174;SDS011;576;48.418;10.074;2023-12-20T06:17:12;0.83;;;0.83;;
1174;SDS011;576;48.418;10.074;2023-12-20T06:19:41;0.80;;;0.80;;
1174;SDS011;576;48.418;10.074;2023-12-20T06:22:13;1.07;;;1.03;;
1174;SDS011;576;48.418;10.074;2023-12-20T06:24:41;1.30;;;1.30;;
1174;SDS011;576;48.418;10.074;2023-12-20T06:27:09;1.43;;;1.33;;
1174;SDS011;576;48.418;10.074;2023-12-20T06:29:38;1.10;;;1.10;;
1174;SDS011;576;48.418;10.074;2023-12-20T06:32:07;1.00;;;1.00;;
1174;SDS011;576;48.418;10.074;2023-12-20T06:34:36;1.10;;;1.10;;
1174;SDS011;576;48.418;10.074;2023-12-20T06:37:07;1.10;;;1.00;;
1174;SDS011;576;48.418;10.074;2023-12-20T06:39:36;0.97;;;0.93;;
1174;SDS011;576;48.418;10.074;2023-12-20T06:42:05;1.53;;;1.17;;
1174;SDS011;576;48.418;10.074;2023-12-20T06:44:33;1.33;;;1.23;;
1174;SDS011;576;48.418;10.074;2023-12-20T06:47:02;1.00;;;1.00;;
1174;SDS011;576;48.418;10.074;2023-12-20T06:49:30;0.90;;;0.87;;
1174;SDS011;576;48.418;10.074;2023-12-20T06:51:59;1.10;;;1.10;;
1174;SDS011;576;48.418;10.074;2023-12-20T06:54:27;0.90;;;0.90;;
1174;SDS011;576;48.418;10.074;2023-12-20T06:56:57;1.20;;;1.10;;
1174;SDS011;576;48.418;10.074;2023-12-20T06:59:25;1.20;;;1.10;;
1174;SDS011;576;48.418;10.074;2023-12-20T07:01:53;1.83;;;1.00;;
1174;SDS011;576;48.418;10.074;2023-12-20T07:04:23;1.20;;;1.10;;
1174;SDS011;576;48.418;10.074;2023-12-20T07:06:51;1.43;;;1.33;;
1174;SDS011;576;48.418;10.074;2023-12-20T07:09:24;1.50;;;1.40;;
1174;SDS011;576;48.418;10.074;2023-12-20T07:11:56;1.10;;;1.10;;
1174;SDS011;576;48.418;10.074;2023-12-20T07:14:25;1.60;;;1.50;;
1174;SDS011;576;48.418;10.074;2023-12-20T07:16:54;1.27;;;1.10;;
1174;SDS011;576;48.418;10.074;2023-12-20T07:19:22;1.17;;;1.07;;
1174;SDS011;576;48.418;10.074;2023-12-20T07:21:51;1.03;;;1.03;;
1174;SDS011;576;48.418;10.074;2023-12-20T07:24:20;1.23;;;1.17;;
1174;SDS011;576;48.418;10.074;2023-12-20T07:26:49;1.27;;;1.17;;
1174;SDS011;576;48.418;10.074;2023-12-20T07:29:19;0.90;;;0.90;;
1174;SDS011;576;48.418;10.074;2023-12-20T07:31:48;1.57;;;1.20;;
1174;SDS011;576;48.418;10.074;2023-12-20T07:34:18;1.00;;;1.00;;
1174;SDS011;576;48.418;10.074;2023-12-20T07:36:47;1.57;;;1.47;;
1174;SDS011;576;48.418;10.074;2023-12-20T07:39:15;1.60;;;1.50;;
1174;SDS011;576;48.418;10.074;2023-12-20T07:41:45;1.20;;;1.10;;
1174;SDS011;576;48.418;10.074;2023-12-20T07:44:13;1.07;;;0.97;;
1174;SDS011;576;48.418;10.074;2023-12-20T07:46:47;1.10;;;1.10;;
1174;SDS011;576;48.418;10.074;2023-12-20T07:49:16;1.40;;;1.30;;
1174;SDS011;576;48.418;10.074;2023-12-20T07:51:45;1.23;;;1.13;;
1174;SDS011;576;48.418;10.074;2023-12-20T07:54:13;1.67;;;1.57;;
1174;SDS011;576;48.418;10.074;2023-12-20T07:56:50;1.17;;;0.83;;
1174;SDS011;576;48.418;10.074;2023-12-20T07:59:20;1.53;;;1.43;;
1174;SDS011;576;48.418;10.074;2023-12-20T08:01:59;1.40;;;1.30;;
1174;SDS011;576;48.418;10.074;2023-12-20T08:04:28;1.23;;;1.13;;
1174;SDS011;576;48.418;10.074;2023-12-20T08:06:57;1.50;;;1.20;;
1174;SDS011;576;48.418;10.074;2023-12-20T08:09:27;1.40;;;0.80;;
1174;SDS011;576;48.418;10.074;2023-12-20T08:11:55;3.10;;;1.43;;
1174;SDS011;576;48.418;10.074;2023-12-20T08:14:26;1.40;;;1.30;;
1174;SDS011;576;48.418;10.074;2023-12-20T08:16:54;1.30;;;1.20;;
1174;SDS011;576;48.418;10.074;2023-12-20T08:19:24;1.50;;;1.40;;
1174;SDS011;576;48.418;10.074;2023-12-20T08:21:52;1.00;;;0.83;;
1174;SDS011;576;48.418;10.074;2023-12-20T08:24:21;0.90;;;0.90;;
1174;SDS011;576;48.418;10.074;2023-12-20T08:26:49;1.27;;;1.23;;
1174;SDS011;576;48.418;10.074;2023-12-20T08:29:17;1.20;;;1.10;;
1174;SDS011;576;48.418;10.074;2023-12-20T08:31:45;1.20;;;1.10;;
1174;SDS011;576;48.418;10.074;2023-12-20T08:34:14;0.80;;;0.80;;
1174;SDS011;576;48.418;10.074;2023-12-20T08:36:47;1.57;;;1.47;;
1174;SDS011;576;48.418;10.074;2023-12-20T08:39:16;2.17;;;1.97;;
1174;SDS011;576;48.418;10.074;2023-12-20T08:41:44;1.47;;;1.37;;
1174;SDS011;576;48.418;10.074;2023-12-20T08:44:13;2.33;;;1.80;;
1174;SDS011;576;48.418;10.074;2023-12-20T08:46:42;2.50;;;1.70;;
1174;SDS011;576;48.418;10.074;2023-12-20T08:49:10;3.70;;;1.97;;
1174;SDS011;576;48.418;10.074;2023-12-20T08:51:39;1.93;;;1.73;;
1174;SDS011;576;48.418;10.074;2023-12-20T08:54:10;5.30;;;1.80;;
1174;SDS011;576;48.418;10.074;2023-12-20T08:56:39;3.83;;;2.30;;
1174;SDS011;576;48.418;10.074;2023-12-20T08:59:08;2.73;;;2.17;;
1174;SDS011;576;48.418;10.074;2023-12-20T09:01:37;3.13;;;1.93;;
1174;SDS011;576;48.418;10.074;2023-12-20T09:04:05;2.60;;;2.40;;
1174;SDS011;576;48.418;10.074;2023-12-20T09:06:34;3.13;;;2.90;;
1174;SDS011;576;48.418;10.074;2023-12-20T09:09:03;3.37;;;2.37;;
1174;SDS011;576;48.418;10.074;2023-12-20T09:11:33;2.50;;;1.90;;
1174;SDS011;576;48.418;10.074;2023-12-20T09:14:02;2.10;;;1.83;;
1174;SDS011;576;48.418;10.074;2023-12-20T09:16:30;3.87;;;2.70;;
1174;SDS011;576;48.418;10.074;2023-12-20T09:18:59;2.20;;;1.60;;
1174;SDS011;576;48.418;10.074;2023-12-20T09:21:28;1.80;;;1.70;;
1174;SDS011;576;48.418;10.074;2023-12-20T09:23:57;3.23;;;2.03;;
1174;SDS011;576;48.418;10.074;2023-12-20T09:26:25;3.43;;;2.07;;
1174;SDS011;576;48.418;10.074;2023-12-20T09:28:56;3.07;;;2.47;;
1174;SDS011;576;48.418;10.074;2023-12-20T09:31:24;2.37;;;1.97;;
1174;SDS011;576;48.418;10.074;2023-12-20T09:33:53;2.57;;;2.37;;
1174;SDS011;576;48.418;10.074;2023-12-20T09:36:22;2.60;;;2.40;;
1174;SDS011;576;48.418;10.074;2023-12-20T09:38:51;2.33;;;1.97;;
1174;SDS011;576;48.418;10.074;2023-12-20T09:41:20;3.43;;;2.40;;
1174;SDS011;576;48.418;10.074;2023-12-20T09:43:51;2.57;;;2.10;;
1174;SDS011;576;48.418;10.074;2023-12-20T09:46:24;3.07;;;1.87;;
1174;SDS011;576;48.418;10.074;2023-12-20T09:48:58;2.20;;;2.00;;
1174;SDS011;576;48.418;10.074;2023-12-20T09:51:28;2.60;;;2.20;;
1174;SDS011;576;48.418;10.074;2023-12-20T09:53:58;2.00;;;1.80;;
1174;SDS011;576;48.418;10.074;2023-12-20T09:56:28;2.07;;;1.97;;
1174;SDS011;576;48.418;10.074;2023-12-20T09:58:57;2.03;;;1.87;;
1174;SDS011;576;48.418;10.074;2023-12-20T10:01:28;2.43;;;2.23;;
1174;SDS011;576;48.418;10.074;2023-12-20T10:03:58;2.20;;;2.00;;
1174;SDS011;576;48.418;10.074;2023-12-20T10:06:33;2.07;;;1.97;;
1174;SDS011;576;48.418;10.074;2023-12-20T10:09:02;2.20;;;2.00;;
1174;SDS011;576;48.418;10.074;2023-12-20T10:11:32;1.60;;;1.50;;
1174;SDS011;576;48.418;10.074;2023-12-20T10:14:04;1.97;;;1.87;;
1174;SDS011;576;48.418;10.074;2023-12-20T10:16:35;2.30;;;2.10;;
1174;SDS011;576;48.418;10.074;2023-12-20T10:19:04;2.03;;;1.80;;
1174;SDS011;576;48.418;10.074;2023-12-20T10:21:33;3.33;;;1.50;;
1174;SDS011;576;48.418;10.074;2023-12-20T10:24:01;2.60;;;1.90;;
1174;SDS011;576;48.418;10.074;2023-12-20T10:26:30;2.07;;;1.97;;
1174;SDS011;576;48.418;10.074;2023-12-20T10:28:59;2.20;;;1.70;;
1174;SDS011;576;48.418;10.074;2023-12-20T10:31:29;4.10;;;1.87;;
1174;SDS011;576;48.418;10.074;2023-12-20T10:34:01;2.53;;;2.00;;
1174;SDS011;576;48.418;10.074;2023-12-20T10:36:31;2.30;;;2.07;;
1174;SDS011;576;48.418;10.074;2023-12-20T10:39:00;2.40;;;1.60;;
1174;SDS011;576;48.418;10.074;2023-12-20T10:41:30;1.93;;;1.60;;
1174;SDS011;576;48.418;10.074;2023-12-20T10:44:00;2.07;;;1.93;;
1174;SDS011;576;48.418;10.074;2023-12-20T10:46:29;1.83;;;1.73;;
1174;SDS011;576;48.418;10.074;2023-12-20T10:48:58;2.40;;;1.80;;
1174;SDS011;576;48.418;10.074;2023-12-20T10:51:28;1.63;;;1.53;;
1174;SDS011;576;48.418;10.074;2023-12-20T10:53:58;1.50;;;1.40;;
1174;SDS011;576;48.418;10.074;2023-12-20T10:56:26;1.97;;;1.80;;
1174;SDS011;576;48.418;10.074;2023-12-20T10:59:00;2.20;;;1.57;;
1174;SDS011;576;48.418;10.074;2023-12-20T11:01:31;3.03;;;2.10;;
1174;SDS011;576;48.418;10.074;2023-12-20T11:04:01;1.53;;;1.43;;
1174;SDS011;576;48.418;10.074;2023-12-20T11:06:39;2.30;;;1.70;;
1174;SDS011;576;48.418;10.074;2023-12-20T11:09:14;2.00;;;1.90;;
1174;SDS011;576;48.418;10.074;2023-12-20T11:11:55;2.10;;;1.77;;
1174;SDS011;576;48.418;10.074;2023-12-20T11:14:27;2.20;;;2.00;;
1174;SDS011;576;48.418;10.074;2023-12-20T11:17:07;1.73;;;1.63;;
1174;SDS011;576;48.418;10.074;2023-12-20T11:19:36;2.50;;;2.20;;
1174;SDS011;576;48.418;10.074;2023-12-20T11:22:07;1.67;;;1.57;;
1174;SDS011;576;48.418;10.074;2023-12-20T11:24:38;1.67;;;1.57;;
1174;SDS011;576;48.418;10.074;2023-12-20T11:27:13;1.60;;;1.50;;
1174;SDS011;576;48.418;10.074;2023-12-20T11:29:42;2.03;;;1.87;;
1174;SDS011;576;48.418;10.074;2023-12-20T11:32:28;1.33;;;1.23;;
1174;SDS011;576;48.418;10.074;2023-12-20T11:34:57;1.50;;;1.40;;
1174;SDS011;576;48.418;10.074;2023-12-20T11:37:32;1.60;;;1.50;;
1174;SDS011;576;48.418;10.074;2023-12-20T11:40:05;1.67;;;1.57;;
1174;SDS011;576;48.418;10.074;2023-12-20T11:42:37;1.50;;;1.40;;
1174;SDS011;576;48.418;10.074;2023-12-20T11:45:08;1.37;;;1.27;;
1174;SDS011;576;48.418;10.074;2023-12-20T11:47:37;1.90;;;1.80;;
1174;SDS011;576;48.418;10.074;2023-12-20T11:50:06;1.93;;;1.30;;
1174;SDS011;576;48.418;10.074;2023-12-20T11:52:37;2.07;;;1.93;;
1174;SDS011;576;48.418;10.074;2023-12-20T11:55:06;1.93;;;1.73;;
1174;SDS011;576;48.418;10.074;2023-12-20T11:57:35;3.27;;;2.07;;
1174;SDS011;576;48.418;10.074;2023-12-20T12:00:06;1.40;;;1.30;;
1174;SDS011;576;48.418;10.074;2023-12-20T12:02:38;2.20;;;2.00;;
1174;SDS011;576;48.418;10.074;2023-12-20T12:05:06;1.87;;;1.77;;
1174;SDS011;576;48.418;10.074;2023-12-20T12:07:37;1.70;;;1.60;;
1174;SDS011;576;48.418;10.074;2023-12-20T12:10:06;1.50;;;1.40;;
1174;SDS011;576;48.418;10.074;2023-12-20T12:12:44;1.90;;;1.80;;
1174;SDS011;576;48.418;10.074;2023-12-20T12:15:14;1.60;;;1.50;;
1174;SDS011;576;48.418;10.074;2023-12-20T12:17:43;2.40;;;1.60;;
1174;SDS011;576;48.418;10.074;2023-12-20T12:20:12;1.70;;;1.60;;
1174;SDS011;576;48.418;10.074;2023-12-20T12:22:43;1.07;;;0.97;;
1174;SDS011;576;48.418;10.074;2023-12-20T12:25:14;1.70;;;1.60;;
1174;SDS011;576;48.418;10.074;2023-12-20T12:27:43;1.50;;;1.20;;
1174;SDS011;576;48.418;10.074;2023-12-20T12:30:13;2.50;;;1.43;;
1174;SDS011;576;48.418;10.074;2023-12-20T12:32:45;2.70;;;1.50;;
1174;SDS011;576;48.418;10.074;2023-12-20T12:35:14;2.70;;;1.37;;
1174;SDS011;576;48.418;10.074;2023-12-20T12:37:45;2.50;;;1.27;;
1174;SDS011;576;48.418;10.074;2023-12-20T12:40:14;1.87;;;1.70;;
1174;SDS011;576;48.418;10.074;2023-12-20T12:42:45;1.93;;;1.80;;
1174;SDS011;576;48.418;10.074;2023-12-20T12:45:14;1.40;;;1.30;;
1174;SDS011;576;48.418;10.074;2023-12-20T12:47:43;1.40;;;1.30;;
1174;SDS011;576;48.418;10.074;2023-12-20T12:50:13;1.70;;;1.60;;
1174;SDS011;576;48.418;10.074;2023-12-20T12:52:42;1.30;;;1.20;;
1174;SDS011;576;48.418;10.074;2023-12-20T12:55:12;1.67;;;1.47;;
1174;SDS011;576;48.418;10.074;2023-12-20T12:57:41;1.53;;;1.30;;
1174;SDS011;576;48.418;10.074;2023-12-20T13:00:11;1.50;;;1.40;;
1174;SDS011;576;48.418;10.074;2023-12-20T13:02:40;2.70;;;2.07;;
1174;SDS011;576;48.418;10.074;2023-12-20T13:05:09;1.53;;;1.43;;
1174;SDS011;576;48.418;10.074;2023-12-20T13:07:39;2.70;;;1.40;;
1174;SDS011;576;48.418;10.074;2023-12-20T13:10:14;1.40;;;1.30;;
1174;SDS011;576;48.418;10.074;2023-12-20T13:12:44;2.20;;;1.40;;
1174;SDS011;576;48.418;10.074;2023-12-20T13:15:13;1.40;;;1.30;;
1174;SDS011;576;48.418;10.074;2023-12-20T13:17:42;1.60;;;1.50;;
1174;SDS011;576;48.418;10.074;2023-12-20T13:20:13;1.50;;;1.40;;
1174;SDS011;576;48.418;10.074;2023-12-20T13:22:42;0.97;;;0.97;;
1174;SDS011;576;48.418;10.074;2023-12-20T13:25:11;1.13;;;0.90;;
1174;SDS011;576;48.418;10.074;2023-12-20T13:27:42;3.10;;;1.70;;
1174;SDS011;576;48.418;10.074;2023-12-20T13:30:12;1.00;;;0.97;;
1174;SDS011;576;48.418;10.074;2023-12-20T13:32:41;1.10;;;1.00;;
1174;SDS011;576;48.418;10.074;2023-12-20T13:35:09;2.43;;;1.70;;
1174;SDS011;576;48.418;10.074;2023-12-20T13:37:38;0.87;;;0.87;;
1174;SDS011;576;48.418;10.074;2023-12-20T13:40:09;1.20;;;1.10;;
1174;SDS011;576;48.418;10.074;2023-12-20T13:42:39;1.30;;;1.10;;
1174;SDS011;576;48.418;10.074;2023-12-20T13:45:10;1.07;;;0.97;;
1174;SDS011;576;48.418;10.074;2023-12-20T13:47:39;1.10;;;1.00;;
1174;SDS011;576;48.418;10.074;2023-12-20T13:50:08;1.30;;;1.20;;
1174;SDS011;576;48.418;10.074;2023-12-20T13:52:38;1.30;;;1.07;;
1174;SDS011;576;48.418;10.074;2023-12-20T13:55:07;1.87;;;1.07;;
1174;SDS011;576;48.418;10.074;2023-12-20T13:57:37;2.33;;;1.00;;
1174;SDS011;576;48.418;10.074;2023-12-20T14:00:11;1.03;;;1.03;;
1174;SDS011;576;48.418;10.074;2023-12-20T14:02:41;1.47;;;0.90;;
1174;SDS011;576;48.418;10.074;2023-12-20T14:05:10;1.43;;;1.03;;
1174;SDS011;576;48.418;10.074;2023-12-20T14:07:40;1.17;;;1.07;;
1174;SDS011;576;48.418;10.074;2023-12-20T14:10:12;1.90;;;1.13;;
1174;SDS011;576;48.418;10.074;2023-12-20T14:12:41;2.33;;;1.07;;
1174;SDS011;576;48.418;10.074;2023-12-20T14:15:13;0.80;;;0.80;;
1174;SDS011;576;48.418;10.074;2023-12-20T14:17:41;1.13;;;1.00;;
1174;SDS011;576;48.418;10.074;2023-12-20T14:20:11;1.13;;;0.97;;
1174;SDS011;576;48.418;10.074;2023-12-20T14:22:41;2.10;;;0.90;;
1174;SDS011;576;48.418;10.074;2023-12-20T14:25:11;1.00;;;0.90;;
1174;SDS011;576;48.418;10.074;2023-12-20T14:27:41;0.70;;;0.63;;
1174;SDS011;576;48.418;10.074;2023-12-20T14:30:14;1.87;;;1.03;;
1174;SDS011;576;48.418;10.074;2023-12-20T14:32:44;1.30;;;1.20;;
1174;SDS011;576;48.418;10.074;2023-12-20T14:35:14;1.13;;;0.97;;
1174;SDS011;576;48.418;10.074;2023-12-20T14:37:43;2.30;;;1.10;;
1174;SDS011;576;48.418;10.074;2023-12-20T14:40:13;1.50;;;1.13;;
1174;SDS011;576;48.418;10.074;2023-12-20T14:42:45;0.80;;;0.80;;
1174;SDS011;576;48.418;10.074;2023-12-20T14:45:17;3.13;;;1.00;;
1174;SDS011;576;48.418;10.074;2023-12-20T14:47:47;0.90;;;0.80;;
1174;SDS011;576;48.418;10.074;2023-12-20T14:50:17;1.20;;;0.83;;
1174;SDS011;576;48.418;10.074;2023-12-20T14:52:49;1.60;;;1.20;;
1174;SDS011;576;48.418;10.074;2023-12-20T14:55:20;1.93;;;0.93;;
1174;SDS011;576;48.418;10.074;2023-12-20T14:57:49;2.10;;;1.20;;
1174;SDS011;576;48.418;10.074;2023-12-20T15:00:20;1.23;;;0.60;;
1174;SDS011;576;48.418;10.074;2023-12-20T15:02:50;1.20;;;0.70;;
1174;SDS011;576;48.418;10.074;2023-12-20T15:05:21;2.70;;;1.10;;
1174;SDS011;576;48.418;10.074;2023-12-20T15:07:50;2.53;;;1.50;;
1174;SDS011;576;48.418;10.074;2023-12-20T15:10:19;1.20;;;1.10;;
1174;SDS011;576;48.418;10.074;2023-12-20T15:12:49;1.00;;;0.90;;
1174;SDS011;576;48.418;10.074;2023-12-20T15:15:20;2.77;;;1.13;;
1174;SDS011;576;48.418;10.074;2023-12-20T15:17:49;6.10;;;1.30;;
1174;SDS011;576;48.418;10.074;2023-12-20T15:20:19;1.73;;;1.40;;
1174;SDS011;576;48.418;10.074;2023-12-20T15:22:48;1.73;;;0.90;;
1174;SDS011;576;48.418;10.074;2023-12-20T15:25:18;1.23;;;1.13;;
1174;SDS011;576;48.418;10.074;2023-12-20T15:27:49;1.63;;;1.10;;